sensor_id;sensor_type;location;lat;lon;timestamp;P1;durP1;ratioP1;P2;durP2;ratioP2
35578;SDS011;21687;48.900;9.188;2023-10-09T00:01:03;23.07;;;7.73;;
35578;SDS011;21687;48.900;9.188;2023-10-09T00:03:40;13.83;;;7.37;;
35578;SDS011;21687;48.900;9.188;2023-10-09T00:06:09;11.93;;;7.40;;
35578;SDS011;21687;48.900;9.188;2023-10-09T00:08:39;17.30;;;8.00;;
35578;SDS011;21687;48.900;9.188;2023-10-09T00:11:10;13.83;;;7.23;;
35578;SDS011;21687;48.900;9.188;2023-10-09T00:13:47;18.50;;;8.27;;
35578;SDS011;21687;48.900;9.188;2023-10-09T00:16:18;18.30;;;7.80;;
35578;SDS011;21687;48.900;9.188;2023-10-09T00:18:58;17.70;;;7.90;;
35578;SDS011;21687;48.900;9.188;2023-10-09T00:21:39;14.77;;;8.03;;
35578;SDS011;21687;48.900;9.188;2023-10-09T00:24:06;17.03;;;8.10;;
35578;SDS011;21687;48.900;9.188;2023-10-09T00:26:40;13.27;;;9.17;;
35578;SDS011;21687;48.900;9.188;2023-10-09T00:29:11;13.37;;;8.20;;
35578;SDS011;21687;48.900;9.188;2023-10-09T00:31:48;15.37;;;8.20;;
35578;SDS011;21687;48.900;9.188;2023-10-09T00:34:18;16.10;;;8.60;;
35578;SDS011;21687;48.900;9.188;2023-10-09T00:36:45;17.93;;;8.67;;
35578;SDS011;21687;48.900;9.188;2023-10-09T00:39:19;13.83;;;7.40;;
35578;SDS011;21687;48.900;9.188;2023-10-09T00:42:05;22.50;;;10.00;;
35578;SDS011;21687;48.900;9.188;2023-10-09T00:44:33;12.63;;;7.73;;
35578;SDS011;21687;48.900;9.188;2023-10-09T00:47:06;15.23;;;7.90;;
35578;SDS011;21687;48.900;9.188;2023-10-09T00:49:49;15.37;;;8.50;;
35578;SDS011;21687;48.900;9.188;2023-10-09T00:52:35;17.00;;;8.30;;
35578;SDS011;21687;48.900;9.188;2023-10-09T00:55:17;13.37;;;8.33;;
35578;SDS011;21687;48.900;9.188;2023-10-09T00:58:01;16.17;;;8.03;;
35578;SDS011;21687;48.900;9.188;2023-10-09T01:00:35;14.03;;;7.57;;
35578;SDS011;21687;48.900;9.188;2023-10-09T01:03:11;13.57;;;7.53;;
35578;SDS011;21687;48.900;9.188;2023-10-09T01:05:42;12.97;;;7.40;;
35578;SDS011;21687;48.900;9.188;2023-10-09T01:08:30;14.83;;;8.13;;
35578;SDS011;21687;48.900;9.188;2023-10-09T01:10:58;11.97;;;8.20;;
35578;SDS011;21687;48.900;9.188;2023-10-09T01:13:45;15.33;;;7.80;;
35578;SDS011;21687;48.900;9.188;2023-10-09T01:16:13;12.17;;;8.03;;
35578;SDS011;21687;48.900;9.188;2023-10-09T01:18:44;12.87;;;7.70;;
35578;SDS011;21687;48.900;9.188;2023-10-09T01:21:18;17.00;;;8.00;;
35578;SDS011;21687;48.900;9.188;2023-10-09T01:23:51;20.33;;;9.13;;
35578;SDS011;21687;48.900;9.188;2023-10-09T01:26:30;18.87;;;8.57;;
35578;SDS011;21687;48.900;9.188;2023-10-09T01:29:11;15.20;;;8.03;;
35578;SDS011;21687;48.900;9.188;2023-10-09T01:31:40;13.13;;;8.10;;
35578;SDS011;21687;48.900;9.188;2023-10-09T01:34:29;15.20;;;8.23;;
35578;SDS011;21687;48.900;9.188;2023-10-09T01:37:15;12.60;;;8.03;;
35578;SDS011;21687;48.900;9.188;2023-10-09T01:39:54;13.10;;;8.00;;
35578;SDS011;21687;48.900;9.188;2023-10-09T01:42:24;16.30;;;8.30;;
35578;SDS011;21687;48.900;9.188;2023-10-09T01:44:59;14.57;;;8.00;;
35578;SDS011;21687;48.900;9.188;2023-10-09T01:47:41;13.23;;;7.50;;
35578;SDS011;21687;48.900;9.188;2023-10-09T01:50:16;13.27;;;7.70;;
35578;SDS011;21687;48.900;9.188;2023-10-09T01:53:00;15.47;;;7.50;;
35578;SDS011;21687;48.900;9.188;2023-10-09T01:55:30;14.83;;;7.47;;
35578;SDS011;21687;48.900;9.188;2023-10-09T01:58:04;12.70;;;7.30;;
35578;SDS011;21687;48.900;9.188;2023-10-09T02:00:41;14.17;;;8.00;;
35578;SDS011;21687;48.900;9.188;2023-10-09T02:03:08;14.60;;;7.67;;
35578;SDS011;21687;48.900;9.188;2023-10-09T02:05:48;13.10;;;7.23;;
35578;SDS011;21687;48.900;9.188;2023-10-09T02:08:25;14.80;;;7.63;;
35578;SDS011;21687;48.900;9.188;2023-10-09T02:10:55;14.27;;;7.57;;
35578;SDS011;21687;48.900;9.188;2023-10-09T02:13:22;17.23;;;7.27;;
35578;SDS011;21687;48.900;9.188;2023-10-09T02:16:00;13.60;;;6.93;;
35578;SDS011;21687;48.900;9.188;2023-10-09T02:18:53;12.30;;;6.37;;
35578;SDS011;21687;48.900;9.188;2023-10-09T02:21:24;17.90;;;7.40;;
35578;SDS011;21687;48.900;9.188;2023-10-09T02:24:00;16.80;;;7.10;;
35578;SDS011;21687;48.900;9.188;2023-10-09T02:26:32;16.90;;;7.83;;
35578;SDS011;21687;48.900;9.188;2023-10-09T02:29:04;17.33;;;8.03;;
35578;SDS011;21687;48.900;9.188;2023-10-09T02:31:44;16.83;;;7.17;;
35578;SDS011;21687;48.900;9.188;2023-10-09T02:34:12;11.97;;;6.53;;
35578;SDS011;21687;48.900;9.188;2023-10-09T02:36:41;11.17;;;6.70;;
35578;SDS011;21687;48.900;9.188;2023-10-09T02:39:08;16.97;;;6.90;;
35578;SDS011;21687;48.900;9.188;2023-10-09T02:41:53;12.97;;;6.70;;
35578;SDS011;21687;48.900;9.188;2023-10-09T02:44:26;17.10;;;6.77;;
35578;SDS011;21687;48.900;9.188;2023-10-09T02:47:00;15.13;;;6.47;;
35578;SDS011;21687;48.900;9.188;2023-10-09T02:49:30;11.93;;;6.70;;
35578;SDS011;21687;48.900;9.188;2023-10-09T02:51:59;10.73;;;6.23;;
35578;SDS011;21687;48.900;9.188;2023-10-09T02:54:30;14.07;;;6.33;;
35578;SDS011;21687;48.900;9.188;2023-10-09T02:57:00;12.77;;;6.73;;
35578;SDS011;21687;48.900;9.188;2023-10-09T02:59:33;11.70;;;7.53;;
35578;SDS011;21687;48.900;9.188;2023-10-09T03:02:02;13.37;;;6.67;;
35578;SDS011;21687;48.900;9.188;2023-10-09T03:04:28;15.90;;;7.33;;
35578;SDS011;21687;48.900;9.188;2023-10-09T03:06:55;12.33;;;6.83;;
35578;SDS011;21687;48.900;9.188;2023-10-09T03:09:32;10.47;;;6.13;;
35578;SDS011;21687;48.900;9.188;2023-10-09T03:12:01;15.20;;;7.00;;
35578;SDS011;21687;48.900;9.188;2023-10-09T03:14:29;13.90;;;6.87;;
35578;SDS011;21687;48.900;9.188;2023-10-09T03:16:56;12.53;;;6.37;;
35578;SDS011;21687;48.900;9.188;2023-10-09T03:19:26;10.70;;;6.37;;
35578;SDS011;21687;48.900;9.188;2023-10-09T03:21:54;14.27;;;7.20;;
35578;SDS011;21687;48.900;9.188;2023-10-09T03:24:23;21.43;;;7.57;;
35578;SDS011;21687;48.900;9.188;2023-10-09T03:26:52;18.20;;;7.20;;
35578;SDS011;21687;48.900;9.188;2023-10-09T03:29:24;15.57;;;7.33;;
35578;SDS011;21687;48.900;9.188;2023-10-09T03:31:52;17.57;;;8.03;;
35578;SDS011;21687;48.900;9.188;2023-10-09T03:34:20;12.57;;;6.23;;
35578;SDS011;21687;48.900;9.188;2023-10-09T03:36:47;13.33;;;6.00;;
35578;SDS011;21687;48.900;9.188;2023-10-09T03:39:16;16.13;;;6.87;;
35578;SDS011;21687;48.900;9.188;2023-10-09T03:42:00;16.30;;;7.10;;
35578;SDS011;21687;48.900;9.188;2023-10-09T03:44:33;14.93;;;7.00;;
35578;SDS011;21687;48.900;9.188;2023-10-09T03:47:04;11.73;;;6.53;;
35578;SDS011;21687;48.900;9.188;2023-10-09T03:49:30;13.13;;;6.50;;
35578;SDS011;21687;48.900;9.188;2023-10-09T03:51:57;12.07;;;6.53;;
35578;SDS011;21687;48.900;9.188;2023-10-09T03:54:24;11.80;;;6.10;;
35578;SDS011;21687;48.900;9.188;2023-10-09T03:56:53;12.80;;;6.53;;
35578;SDS011;21687;48.900;9.188;2023-10-09T03:59:24;13.77;;;7.57;;
35578;SDS011;21687;48.900;9.188;2023-10-09T04:01:55;12.00;;;7.00;;
35578;SDS011;21687;48.900;9.188;2023-10-09T04:04:23;12.27;;;6.97;;
35578;SDS011;21687;48.900;9.188;2023-10-09T04:06:53;15.03;;;7.33;;
35578;SDS011;21687;48.900;9.188;2023-10-09T04:09:19;15.97;;;7.00;;
35578;SDS011;21687;48.900;9.188;2023-10-09T04:11:46;16.03;;;7.03;;
35578;SDS011;21687;48.900;9.188;2023-10-09T04:14:22;16.87;;;7.13;;
35578;SDS011;21687;48.900;9.188;2023-10-09T04:16:58;12.60;;;7.37;;
35578;SDS011;21687;48.900;9.188;2023-10-09T04:19:31;13.17;;;7.53;;
35578;SDS011;21687;48.900;9.188;2023-10-09T04:22:13;14.10;;;7.70;;
35578;SDS011;21687;48.900;9.188;2023-10-09T04:24:52;16.27;;;7.37;;
35578;SDS011;21687;48.900;9.188;2023-10-09T04:27:19;15.93;;;8.00;;
35578;SDS011;21687;48.900;9.188;2023-10-09T04:29:54;14.37;;;7.40;;
35578;SDS011;21687;48.900;9.188;2023-10-09T04:32:22;13.57;;;6.93;;
35578;SDS011;21687;48.900;9.188;2023-10-09T04:34:50;14.43;;;6.77;;
35578;SDS011;21687;48.900;9.188;2023-10-09T04:37:42;16.07;;;7.43;;
35578;SDS011;21687;48.900;9.188;2023-10-09T04:40:12;15.27;;;7.63;;
35578;SDS011;21687;48.900;9.188;2023-10-09T04:43:01;18.77;;;7.40;;
35578;SDS011;21687;48.900;9.188;2023-10-09T04:45:38;14.70;;;7.37;;
35578;SDS011;21687;48.900;9.188;2023-10-09T04:48:23;16.03;;;7.87;;
35578;SDS011;21687;48.900;9.188;2023-10-09T04:51:01;18.73;;;7.40;;
35578;SDS011;21687;48.900;9.188;2023-10-09T04:53:59;17.30;;;7.70;;
35578;SDS011;21687;48.900;9.188;2023-10-09T04:56:46;12.50;;;6.90;;
35578;SDS011;21687;48.900;9.188;2023-10-09T04:59:18;20.47;;;7.13;;
35578;SDS011;21687;48.900;9.188;2023-10-09T05:01:50;14.73;;;7.53;;
35578;SDS011;21687;48.900;9.188;2023-10-09T05:04:23;17.77;;;7.47;;
35578;SDS011;21687;48.900;9.188;2023-10-09T05:07:02;16.67;;;7.27;;
35578;SDS011;21687;48.900;9.188;2023-10-09T05:09:48;15.40;;;7.43;;
35578;SDS011;21687;48.900;9.188;2023-10-09T05:12:22;16.47;;;7.17;;
35578;SDS011;21687;48.900;9.188;2023-10-09T05:14:54;16.80;;;7.10;;
35578;SDS011;21687;48.900;9.188;2023-10-09T05:17:38;17.20;;;7.43;;
35578;SDS011;21687;48.900;9.188;2023-10-09T05:20:07;17.87;;;7.77;;
35578;SDS011;21687;48.900;9.188;2023-10-09T05:22:52;15.77;;;7.57;;
35578;SDS011;21687;48.900;9.188;2023-10-09T05:25:44;19.17;;;8.07;;
35578;SDS011;21687;48.900;9.188;2023-10-09T05:28:21;16.53;;;6.50;;
35578;SDS011;21687;48.900;9.188;2023-10-09T05:30:56;13.53;;;6.73;;
35578;SDS011;21687;48.900;9.188;2023-10-09T05:33:45;20.03;;;7.70;;
35578;SDS011;21687;48.900;9.188;2023-10-09T05:36:12;19.17;;;7.47;;
35578;SDS011;21687;48.900;9.188;2023-10-09T05:38:50;17.43;;;6.93;;
35578;SDS011;21687;48.900;9.188;2023-10-09T05:41:35;24.93;;;7.17;;
35578;SDS011;21687;48.900;9.188;2023-10-09T05:44:13;19.03;;;6.93;;
35578;SDS011;21687;48.900;9.188;2023-10-09T05:46:58;14.83;;;6.53;;
35578;SDS011;21687;48.900;9.188;2023-10-09T05:49:43;22.57;;;7.73;;
35578;SDS011;21687;48.900;9.188;2023-10-09T05:52:29;16.20;;;6.77;;
35578;SDS011;21687;48.900;9.188;2023-10-09T05:55:05;19.33;;;7.30;;
35578;SDS011;21687;48.900;9.188;2023-10-09T05:57:50;18.17;;;7.07;;
35578;SDS011;21687;48.900;9.188;2023-10-09T06:00:22;19.00;;;6.47;;
35578;SDS011;21687;48.900;9.188;2023-10-09T06:03:08;23.73;;;7.57;;
35578;SDS011;21687;48.900;9.188;2023-10-09T06:05:46;20.97;;;6.60;;
35578;SDS011;21687;48.900;9.188;2023-10-09T06:08:22;20.77;;;6.17;;
35578;SDS011;21687;48.900;9.188;2023-10-09T06:10:55;21.53;;;6.60;;
35578;SDS011;21687;48.900;9.188;2023-10-09T06:13:51;19.00;;;6.37;;
35578;SDS011;21687;48.900;9.188;2023-10-09T06:16:38;15.07;;;5.63;;
35578;SDS011;21687;48.900;9.188;2023-10-09T06:19:28;16.87;;;6.63;;
35578;SDS011;21687;48.900;9.188;2023-10-09T06:21:58;18.70;;;5.67;;
35578;SDS011;21687;48.900;9.188;2023-10-09T06:24:37;20.87;;;7.20;;
35578;SDS011;21687;48.900;9.188;2023-10-09T06:27:11;17.77;;;6.40;;
35578;SDS011;21687;48.900;9.188;2023-10-09T06:29:39;14.67;;;6.63;;
35578;SDS011;21687;48.900;9.188;2023-10-09T06:32:10;22.50;;;6.53;;
35578;SDS011;21687;48.900;9.188;2023-10-09T06:34:43;23.93;;;6.40;;
35578;SDS011;21687;48.900;9.188;2023-10-09T06:37:11;14.77;;;6.67;;
35578;SDS011;21687;48.900;9.188;2023-10-09T06:40:03;18.83;;;6.17;;
35578;SDS011;21687;48.900;9.188;2023-10-09T06:42:56;25.80;;;8.43;;
35578;SDS011;21687;48.900;9.188;2023-10-09T06:45:22;19.17;;;6.93;;
35578;SDS011;21687;48.900;9.188;2023-10-09T06:47:58;17.77;;;6.70;;
35578;SDS011;21687;48.900;9.188;2023-10-09T06:50:35;20.60;;;6.27;;
35578;SDS011;21687;48.900;9.188;2023-10-09T06:53:20;21.90;;;7.10;;
35578;SDS011;21687;48.900;9.188;2023-10-09T06:55:50;15.57;;;6.17;;
35578;SDS011;21687;48.900;9.188;2023-10-09T07:00:54;20.13;;;6.87;;
35578;SDS011;21687;48.900;9.188;2023-10-09T07:03:27;17.70;;;5.93;;
35578;SDS011;21687;48.900;9.188;2023-10-09T07:06:07;20.60;;;6.07;;
35578;SDS011;21687;48.900;9.188;2023-10-09T07:08:35;19.97;;;6.77;;
35578;SDS011;21687;48.900;9.188;2023-10-09T07:11:03;11.90;;;6.77;;
35578;SDS011;21687;48.900;9.188;2023-10-09T07:14:08;15.00;;;7.30;;
35578;SDS011;21687;48.900;9.188;2023-10-09T07:17:03;17.23;;;6.83;;
35578;SDS011;21687;48.900;9.188;2023-10-09T07:19:41;16.53;;;7.20;;
35578;SDS011;21687;48.900;9.188;2023-10-09T07:22:08;14.90;;;6.90;;
35578;SDS011;21687;48.900;9.188;2023-10-09T07:25:00;14.03;;;7.13;;
35578;SDS011;21687;48.900;9.188;2023-10-09T07:27:53;19.87;;;7.57;;
35578;SDS011;21687;48.900;9.188;2023-10-09T07:30:21;19.70;;;7.13;;
35578;SDS011;21687;48.900;9.188;2023-10-09T07:35:36;16.87;;;6.90;;
35578;SDS011;21687;48.900;9.188;2023-10-09T07:38:13;22.33;;;7.70;;
35578;SDS011;21687;48.900;9.188;2023-10-09T07:40:45;25.00;;;7.87;;
35578;SDS011;21687;48.900;9.188;2023-10-09T07:43:45;13.20;;;6.43;;
35578;SDS011;21687;48.900;9.188;2023-10-09T07:49:01;18.80;;;6.97;;
35578;SDS011;21687;48.900;9.188;2023-10-09T07:51:35;22.03;;;7.13;;
35578;SDS011;21687;48.900;9.188;2023-10-09T07:54:02;15.90;;;6.47;;
35578;SDS011;21687;48.900;9.188;2023-10-09T07:56:39;18.57;;;6.80;;
35578;SDS011;21687;48.900;9.188;2023-10-09T07:59:15;15.67;;;5.90;;
35578;SDS011;21687;48.900;9.188;2023-10-09T08:01:48;21.47;;;6.83;;
35578;SDS011;21687;48.900;9.188;2023-10-09T08:04:27;15.87;;;6.63;;
35578;SDS011;21687;48.900;9.188;2023-10-09T08:07:04;23.13;;;7.13;;
35578;SDS011;21687;48.900;9.188;2023-10-09T08:09:35;18.80;;;6.50;;
35578;SDS011;21687;48.900;9.188;2023-10-09T08:12:16;19.30;;;6.93;;
35578;SDS011;21687;48.900;9.188;2023-10-09T08:15:02;17.37;;;6.50;;
35578;SDS011;21687;48.900;9.188;2023-10-09T08:17:45;19.77;;;7.13;;
35578;SDS011;21687;48.900;9.188;2023-10-09T08:20:22;18.67;;;6.60;;
35578;SDS011;21687;48.900;9.188;2023-10-09T08:22:52;21.03;;;6.20;;
35578;SDS011;21687;48.900;9.188;2023-10-09T08:25:22;20.27;;;6.37;;
35578;SDS011;21687;48.900;9.188;2023-10-09T08:28:01;17.07;;;7.17;;
35578;SDS011;21687;48.900;9.188;2023-10-09T08:30:55;18.43;;;6.70;;
35578;SDS011;21687;48.900;9.188;2023-10-09T08:33:21;17.37;;;6.40;;
35578;SDS011;21687;48.900;9.188;2023-10-09T08:36:06;19.13;;;7.43;;
35578;SDS011;21687;48.900;9.188;2023-10-09T08:38:34;21.57;;;7.00;;
35578;SDS011;21687;48.900;9.188;2023-10-09T08:41:10;17.17;;;6.13;;
35578;SDS011;21687;48.900;9.188;2023-10-09T08:43:46;18.00;;;6.50;;
35578;SDS011;21687;48.900;9.188;2023-10-09T08:46:21;22.57;;;6.67;;
35578;SDS011;21687;48.900;9.188;2023-10-09T08:48:48;18.07;;;6.60;;
35578;SDS011;21687;48.900;9.188;2023-10-09T08:51:16;14.53;;;6.40;;
35578;SDS011;21687;48.900;9.188;2023-10-09T08:53:45;19.67;;;7.80;;
35578;SDS011;21687;48.900;9.188;2023-10-09T08:56:12;19.93;;;7.03;;
35578;SDS011;21687;48.900;9.188;2023-10-09T08:58:47;20.53;;;7.13;;
35578;SDS011;21687;48.900;9.188;2023-10-09T09:01:21;20.00;;;6.73;;
35578;SDS011;21687;48.900;9.188;2023-10-09T09:03:50;17.77;;;6.63;;
35578;SDS011;21687;48.900;9.188;2023-10-09T09:06:21;19.93;;;7.30;;
35578;SDS011;21687;48.900;9.188;2023-10-09T09:08:49;15.03;;;7.53;;
35578;SDS011;21687;48.900;9.188;2023-10-09T09:11:24;23.03;;;7.17;;
35578;SDS011;21687;48.900;9.188;2023-10-09T09:16:31;25.77;;;7.87;;
35578;SDS011;21687;48.900;9.188;2023-10-09T09:21:35;18.50;;;6.97;;
35578;SDS011;21687;48.900;9.188;2023-10-09T09:24:06;19.97;;;7.07;;
35578;SDS011;21687;48.900;9.188;2023-10-09T09:26:42;16.77;;;6.93;;
35578;SDS011;21687;48.900;9.188;2023-10-09T09:29:14;20.77;;;7.03;;
35578;SDS011;21687;48.900;9.188;2023-10-09T09:31:52;19.90;;;6.73;;
35578;SDS011;21687;48.900;9.188;2023-10-09T09:34:19;22.70;;;7.67;;
35578;SDS011;21687;48.900;9.188;2023-10-09T09:36:51;16.63;;;7.03;;
35578;SDS011;21687;48.900;9.188;2023-10-09T09:39:22;25.63;;;7.77;;
35578;SDS011;21687;48.900;9.188;2023-10-09T09:41:55;16.37;;;6.93;;
35578;SDS011;21687;48.900;9.188;2023-10-09T09:44:32;20.37;;;7.13;;
35578;SDS011;21687;48.900;9.188;2023-10-09T09:47:08;27.03;;;7.47;;
35578;SDS011;21687;48.900;9.188;2023-10-09T09:49:41;21.83;;;7.83;;
35578;SDS011;21687;48.900;9.188;2023-10-09T09:52:09;25.23;;;7.60;;
35578;SDS011;21687;48.900;9.188;2023-10-09T09:54:36;21.90;;;7.53;;
35578;SDS011;21687;48.900;9.188;2023-10-09T09:57:03;20.07;;;6.67;;
35578;SDS011;21687;48.900;9.188;2023-10-09T09:59:37;19.17;;;6.47;;
35578;SDS011;21687;48.900;9.188;2023-10-09T10:02:17;22.80;;;5.33;;
35578;SDS011;21687;48.900;9.188;2023-10-09T10:05:05;23.60;;;5.90;;
35578;SDS011;21687;48.900;9.188;2023-10-09T10:07:36;18.53;;;5.70;;
35578;SDS011;21687;48.900;9.188;2023-10-09T10:12:59;18.50;;;5.97;;
35578;SDS011;21687;48.900;9.188;2023-10-09T10:16:08;18.47;;;5.20;;
35578;SDS011;21687;48.900;9.188;2023-10-09T10:19:13;19.23;;;5.87;;
35578;SDS011;21687;48.900;9.188;2023-10-09T10:21:33;33.63;;;5.70;;
35578;SDS011;21687;48.900;9.188;2023-10-09T10:27:17;14.10;;;4.00;;
35578;SDS011;21687;48.900;9.188;2023-10-09T10:35:17;17.20;;;5.67;;
35578;SDS011;21687;48.900;9.188;2023-10-09T10:38:18;19.63;;;4.53;;
35578;SDS011;21687;48.900;9.188;2023-10-09T10:41:15;19.97;;;4.63;;
35578;SDS011;21687;48.900;9.188;2023-10-09T10:43:43;24.50;;;4.63;;
35578;SDS011;21687;48.900;9.188;2023-10-09T10:46:20;20.37;;;4.63;;
35578;SDS011;21687;48.900;9.188;2023-10-09T10:49:03;19.30;;;3.97;;
35578;SDS011;21687;48.900;9.188;2023-10-09T10:51:40;17.83;;;4.73;;
35578;SDS011;21687;48.900;9.188;2023-10-09T10:54:19;23.27;;;4.90;;
35578;SDS011;21687;48.900;9.188;2023-10-09T10:56:58;15.47;;;5.47;;
35578;SDS011;21687;48.900;9.188;2023-10-09T10:59:29;21.30;;;5.33;;
35578;SDS011;21687;48.900;9.188;2023-10-09T11:02:01;20.70;;;5.33;;
35578;SDS011;21687;48.900;9.188;2023-10-09T11:04:35;19.67;;;4.60;;
35578;SDS011;21687;48.900;9.188;2023-10-09T11:07:07;20.63;;;5.17;;
35578;SDS011;21687;48.900;9.188;2023-10-09T11:09:56;19.50;;;4.97;;
35578;SDS011;21687;48.900;9.188;2023-10-09T11:12:29;25.03;;;5.17;;
35578;SDS011;21687;48.900;9.188;2023-10-09T11:15:11;17.43;;;5.30;;
35578;SDS011;21687;48.900;9.188;2023-10-09T11:18:06;19.93;;;5.13;;
35578;SDS011;21687;48.900;9.188;2023-10-09T11:20:39;16.90;;;5.37;;
35578;SDS011;21687;48.900;9.188;2023-10-09T11:23:19;19.83;;;4.83;;
35578;SDS011;21687;48.900;9.188;2023-10-09T11:25:55;13.80;;;5.03;;
35578;SDS011;21687;48.900;9.188;2023-10-09T11:28:32;20.00;;;4.87;;
35578;SDS011;21687;48.900;9.188;2023-10-09T11:31:14;19.97;;;4.47;;
35578;SDS011;21687;48.900;9.188;2023-10-09T11:33:47;16.10;;;4.57;;
35578;SDS011;21687;48.900;9.188;2023-10-09T11:36:22;16.80;;;4.40;;
35578;SDS011;21687;48.900;9.188;2023-10-09T11:39:01;13.93;;;4.37;;
35578;SDS011;21687;48.900;9.188;2023-10-09T11:41:43;13.60;;;4.87;;
35578;SDS011;21687;48.900;9.188;2023-10-09T11:44:10;11.23;;;4.53;;
35578;SDS011;21687;48.900;9.188;2023-10-09T11:47:02;17.50;;;4.80;;
35578;SDS011;21687;48.900;9.188;2023-10-09T11:49:50;12.30;;;4.00;;
35578;SDS011;21687;48.900;9.188;2023-10-09T11:52:28;13.90;;;4.10;;
35578;SDS011;21687;48.900;9.188;2023-10-09T11:55:12;16.47;;;4.33;;
35578;SDS011;21687;48.900;9.188;2023-10-09T11:57:42;16.43;;;5.00;;
35578;SDS011;21687;48.900;9.188;2023-10-09T12:00:08;16.27;;;4.53;;
35578;SDS011;21687;48.900;9.188;2023-10-09T12:02:52;17.23;;;5.00;;
35578;SDS011;21687;48.900;9.188;2023-10-09T12:05:19;11.33;;;3.67;;
35578;SDS011;21687;48.900;9.188;2023-10-09T12:07:45;15.80;;;4.53;;
35578;SDS011;21687;48.900;9.188;2023-10-09T12:10:12;11.23;;;4.13;;
35578;SDS011;21687;48.900;9.188;2023-10-09T12:12:40;13.50;;;5.13;;
35578;SDS011;21687;48.900;9.188;2023-10-09T12:15:12;13.23;;;4.20;;
35578;SDS011;21687;48.900;9.188;2023-10-09T12:17:43;20.10;;;5.00;;
35578;SDS011;21687;48.900;9.188;2023-10-09T12:20:15;14.90;;;4.50;;
35578;SDS011;21687;48.900;9.188;2023-10-09T12:23:01;15.60;;;4.33;;
35578;SDS011;21687;48.900;9.188;2023-10-09T12:25:32;13.80;;;4.47;;
35578;SDS011;21687;48.900;9.188;2023-10-09T12:28:03;13.07;;;4.53;;
35578;SDS011;21687;48.900;9.188;2023-10-09T12:30:30;15.53;;;4.73;;
35578;SDS011;21687;48.900;9.188;2023-10-09T12:33:05;18.07;;;4.07;;
35578;SDS011;21687;48.900;9.188;2023-10-09T12:35:39;12.63;;;4.90;;
35578;SDS011;21687;48.900;9.188;2023-10-09T12:38:06;15.07;;;4.40;;
35578;SDS011;21687;48.900;9.188;2023-10-09T12:40:36;16.13;;;4.03;;
35578;SDS011;21687;48.900;9.188;2023-10-09T12:43:03;11.80;;;4.03;;
35578;SDS011;21687;48.900;9.188;2023-10-09T12:45:33;12.70;;;4.30;;
35578;SDS011;21687;48.900;9.188;2023-10-09T12:48:00;14.03;;;4.40;;
35578;SDS011;21687;48.900;9.188;2023-10-09T12:50:35;14.97;;;4.60;;
35578;SDS011;21687;48.900;9.188;2023-10-09T12:53:07;15.03;;;4.23;;
35578;SDS011;21687;48.900;9.188;2023-10-09T12:55:34;16.03;;;4.50;;
35578;SDS011;21687;48.900;9.188;2023-10-09T12:58:03;12.40;;;4.20;;
35578;SDS011;21687;48.900;9.188;2023-10-09T13:00:32;16.87;;;4.60;;
35578;SDS011;21687;48.900;9.188;2023-10-09T13:03:03;12.67;;;4.43;;
35578;SDS011;21687;48.900;9.188;2023-10-09T13:05:51;13.53;;;5.27;;
35578;SDS011;21687;48.900;9.188;2023-10-09T13:08:25;15.40;;;4.40;;
35578;SDS011;21687;48.900;9.188;2023-10-09T13:11:05;12.23;;;4.53;;
35578;SDS011;21687;48.900;9.188;2023-10-09T13:13:36;16.23;;;4.70;;
35578;SDS011;21687;48.900;9.188;2023-10-09T13:16:10;14.20;;;5.03;;
35578;SDS011;21687;48.900;9.188;2023-10-09T13:18:40;13.20;;;4.70;;
35578;SDS011;21687;48.900;9.188;2023-10-09T13:21:12;17.67;;;4.43;;
35578;SDS011;21687;48.900;9.188;2023-10-09T13:23:40;13.30;;;4.93;;
35578;SDS011;21687;48.900;9.188;2023-10-09T13:26:12;13.00;;;5.13;;
35578;SDS011;21687;48.900;9.188;2023-10-09T13:28:49;14.07;;;5.27;;
35578;SDS011;21687;48.900;9.188;2023-10-09T13:31:19;16.27;;;5.63;;
35578;SDS011;21687;48.900;9.188;2023-10-09T13:33:47;13.83;;;5.47;;
35578;SDS011;21687;48.900;9.188;2023-10-09T13:36:14;17.90;;;5.50;;
35578;SDS011;21687;48.900;9.188;2023-10-09T13:38:45;13.87;;;5.77;;
35578;SDS011;21687;48.900;9.188;2023-10-09T13:41:12;15.57;;;5.33;;
35578;SDS011;21687;48.900;9.188;2023-10-09T13:43:39;11.13;;;5.30;;
35578;SDS011;21687;48.900;9.188;2023-10-09T13:46:08;12.97;;;6.43;;
35578;SDS011;21687;48.900;9.188;2023-10-09T13:48:40;10.33;;;5.97;;
35578;SDS011;21687;48.900;9.188;2023-10-09T13:51:09;16.90;;;6.40;;
35578;SDS011;21687;48.900;9.188;2023-10-09T13:53:40;17.83;;;6.47;;
35578;SDS011;21687;48.900;9.188;2023-10-09T13:56:13;12.77;;;6.23;;
35578;SDS011;21687;48.900;9.188;2023-10-09T13:58:44;16.10;;;6.07;;
35578;SDS011;21687;48.900;9.188;2023-10-09T14:01:11;15.40;;;6.70;;
35578;SDS011;21687;48.900;9.188;2023-10-09T14:03:46;14.03;;;6.47;;
35578;SDS011;21687;48.900;9.188;2023-10-09T14:06:15;14.00;;;6.10;;
35578;SDS011;21687;48.900;9.188;2023-10-09T14:08:45;15.47;;;6.63;;
35578;SDS011;21687;48.900;9.188;2023-10-09T14:11:11;15.23;;;6.30;;
35578;SDS011;21687;48.900;9.188;2023-10-09T14:13:41;15.73;;;6.50;;
35578;SDS011;21687;48.900;9.188;2023-10-09T14:16:08;13.90;;;6.23;;
35578;SDS011;21687;48.900;9.188;2023-10-09T14:18:52;13.93;;;6.10;;
35578;SDS011;21687;48.900;9.188;2023-10-09T14:21:22;16.10;;;6.37;;
35578;SDS011;21687;48.900;9.188;2023-10-09T14:23:52;17.10;;;6.20;;
35578;SDS011;21687;48.900;9.188;2023-10-09T14:26:22;14.43;;;5.80;;
35578;SDS011;21687;48.900;9.188;2023-10-09T14:28:50;16.27;;;6.23;;
35578;SDS011;21687;48.900;9.188;2023-10-09T14:31:18;12.60;;;5.87;;
35578;SDS011;21687;48.900;9.188;2023-10-09T14:33:55;16.07;;;6.43;;
35578;SDS011;21687;48.900;9.188;2023-10-09T14:36:23;17.13;;;6.13;;
35578;SDS011;21687;48.900;9.188;2023-10-09T14:38:58;18.50;;;6.47;;
35578;SDS011;21687;48.900;9.188;2023-10-09T14:41:25;17.73;;;6.23;;
35578;SDS011;21687;48.900;9.188;2023-10-09T14:43:53;13.00;;;5.83;;
35578;SDS011;21687;48.900;9.188;2023-10-09T14:46:20;12.20;;;6.23;;
35578;SDS011;21687;48.900;9.188;2023-10-09T14:48:53;15.30;;;6.63;;
35578;SDS011;21687;48.900;9.188;2023-10-09T14:51:23;20.13;;;6.53;;
35578;SDS011;21687;48.900;9.188;2023-10-09T14:53:57;14.83;;;6.40;;
35578;SDS011;21687;48.900;9.188;2023-10-09T14:56:27;15.47;;;6.67;;
35578;SDS011;21687;48.900;9.188;2023-10-09T14:58:59;13.83;;;6.20;;
35578;SDS011;21687;48.900;9.188;2023-10-09T15:01:26;12.23;;;5.67;;
35578;SDS011;21687;48.900;9.188;2023-10-09T15:03:56;12.47;;;6.50;;
35578;SDS011;21687;48.900;9.188;2023-10-09T15:06:24;11.20;;;6.50;;
35578;SDS011;21687;48.900;9.188;2023-10-09T15:08:53;15.60;;;6.57;;
35578;SDS011;21687;48.900;9.188;2023-10-09T15:11:21;12.67;;;6.20;;
35578;SDS011;21687;48.900;9.188;2023-10-09T15:13:49;13.13;;;6.20;;
35578;SDS011;21687;48.900;9.188;2023-10-09T15:16:17;15.73;;;6.80;;
35578;SDS011;21687;48.900;9.188;2023-10-09T15:18:46;17.47;;;7.47;;
35578;SDS011;21687;48.900;9.188;2023-10-09T15:21:18;15.33;;;6.70;;
35578;SDS011;21687;48.900;9.188;2023-10-09T15:23:48;17.60;;;6.53;;
35578;SDS011;21687;48.900;9.188;2023-10-09T15:26:21;17.43;;;6.63;;
35578;SDS011;21687;48.900;9.188;2023-10-09T15:28:49;11.93;;;5.63;;
35578;SDS011;21687;48.900;9.188;2023-10-09T15:31:16;16.33;;;6.47;;
35578;SDS011;21687;48.900;9.188;2023-10-09T15:33:44;16.83;;;6.13;;
35578;SDS011;21687;48.900;9.188;2023-10-09T15:36:16;14.53;;;6.20;;
35578;SDS011;21687;48.900;9.188;2023-10-09T15:38:43;14.97;;;6.53;;
35578;SDS011;21687;48.900;9.188;2023-10-09T15:41:09;14.20;;;6.63;;